createdAt,value
2024-05-09T00:00:35.589Z,102979.22
2024-05-09T00:03:10.165Z,102983.53
2024-05-09T00:05:38.609Z,102978.47
2024-05-09T00:08:05.918Z,102972.13
2024-05-09T00:10:37.086Z,102974.84
2024-05-09T00:13:06.788Z,102974.16
2024-05-09T00:15:34.327Z,102973.16
2024-05-09T00:18:01.837Z,102970.81
2024-05-09T00:20:36.789Z,102969.91
2024-05-09T00:23:10.569Z,102974.94
2024-05-09T00:25:38.038Z,102963.66
2024-05-09T00:28:05.446Z,102967.75
2024-05-09T00:30:35.390Z,102964.97
2024-05-09T00:33:05.390Z,102965.97
2024-05-09T00:35:33.141Z,102955.06
2024-05-09T00:37:59.916Z,102960.41
2024-05-09T00:40:37.278Z,102955.72
2024-05-09T00:43:06.818Z,102945.91
2024-05-09T00:45:34.197Z,102943.59
2024-05-09T00:48:07.460Z,102952.91
2024-05-09T00:50:37.934Z,102950.13
2024-05-09T00:53:07.112Z,102945.63
2024-05-09T00:55:35.405Z,102950.28
2024-05-09T00:58:03.221Z,102950.06
2024-05-09T01:00:37.783Z,102945.19
2024-05-09T01:03:07.135Z,102950.66
2024-05-09T01:05:35.080Z,102944.34
2024-05-09T01:08:02.592Z,102950.31
2024-05-09T01:10:34.352Z,102946.41
2024-05-09T01:13:03.618Z,102953.22
2024-05-09T01:15:30.238Z,102949.03
2024-05-09T01:17:57.688Z,102934.84
2024-05-09T01:20:36.395Z,102949.19
2024-05-09T01:23:09.019Z,102944.13
2024-05-09T01:25:35.962Z,102953.66
2024-05-09T01:28:02.542Z,102945.53
2024-05-09T01:30:34.659Z,102936.03
2024-05-09T01:33:04.446Z,102940.13
2024-05-09T01:35:31.511Z,102939.84
2024-05-09T01:37:58.094Z,102941.72
2024-05-09T01:40:33.598Z,102937.50
2024-05-09T01:43:05.014Z,102938.88
2024-05-09T01:45:31.647Z,102937.09
2024-05-09T01:47:58.682Z,102942.84
2024-05-09T01:50:36.730Z,102943.50
2024-05-09T01:53:07.012Z,102937.63
2024-05-09T01:55:33.663Z,102934.47
2024-05-09T01:58:00.245Z,102936.38
2024-05-09T02:00:36.290Z,102938.59
2024-05-09T02:03:10.047Z,102943.94
2024-05-09T02:05:37.582Z,102940.69
2024-05-09T02:08:05.528Z,102948.81
2024-05-09T02:10:33.272Z,102935.97
2024-05-09T02:13:00.343Z,102940.75
2024-05-09T02:15:26.914Z,102942.50
2024-05-09T02:17:53.734Z,102936.25
2024-05-09T02:20:30.121Z,102940.44
2024-05-09T02:23:04.158Z,102938.81
2024-05-09T02:25:31.359Z,102941.56
2024-05-09T02:27:57.910Z,102943.25
2024-05-09T02:30:31.155Z,102942.41
2024-05-09T02:33:05.828Z,102941.56
2024-05-09T02:35:32.777Z,102934.50
2024-05-09T02:37:59.636Z,102946.16
2024-05-09T02:40:35.065Z,102939.06
2024-05-09T02:43:04.266Z,102945.47
2024-05-09T02:45:30.900Z,102936.50
2024-05-09T02:47:57.880Z,102935.00
2024-05-09T02:50:33.124Z,102924.78
2024-05-09T02:53:04.386Z,102926.81
2024-05-09T02:55:31.124Z,102926.63
2024-05-09T02:57:57.673Z,102929.53
2024-05-09T03:00:30.087Z,102924.03
2024-05-09T03:03:05.681Z,102920.84
2024-05-09T03:05:32.631Z,102933.19
2024-05-09T03:07:59.388Z,102926.94
2024-05-09T03:10:28.938Z,102922.91
2024-05-09T03:13:05.232Z,102926.31
2024-05-09T03:15:32.987Z,102914.03
2024-05-09T03:18:00.775Z,102924.31
2024-05-09T03:20:33.290Z,102920.97
2024-05-09T03:23:02.172Z,102924.00
2024-05-09T03:25:28.980Z,102923.66
2024-05-09T03:27:55.566Z,102925.66
2024-05-09T03:30:31.100Z,102917.44
2024-05-09T03:33:13.799Z,102921.34
2024-05-09T03:35:41.518Z,102916.94
2024-05-09T03:38:08.392Z,102911.06
2024-05-09T03:40:35.230Z,102908.53
2024-05-09T03:43:01.801Z,102917.63
2024-05-09T03:45:28.314Z,102918.63
2024-05-09T03:47:55.115Z,102914.13
2024-05-09T03:50:29.908Z,102918.34
2024-05-09T03:53:01.276Z,102914.66
2024-05-09T03:55:28.688Z,102914.31
2024-05-09T03:57:55.390Z,102913.28
2024-05-09T04:00:31.033Z,102917.66
2024-05-09T04:03:06.060Z,102912.28
2024-05-09T04:05:34.408Z,102915.63
2024-05-09T04:08:01.435Z,102915.13
2024-05-09T04:10:33.124Z,102920.53
2024-05-09T04:13:01.331Z,102919.50
2024-05-09T04:15:27.978Z,102922.06
2024-05-09T04:17:54.756Z,102927.09
2024-05-09T04:20:32.538Z,102923.38
2024-05-09T04:23:06.202Z,102917.28
2024-05-09T04:25:35.226Z,102919.97
2024-05-09T04:28:01.767Z,102926.69
2024-05-09T04:30:37.024Z,102931.06
2024-05-09T04:33:08.283Z,102924.97
2024-05-09T04:35:37.043Z,102927.97
2024-05-09T04:38:04.102Z,102927.28
2024-05-09T04:40:34.424Z,102924.72
2024-05-09T04:43:04.105Z,102929.59
2024-05-09T04:45:30.717Z,102929.25
2024-05-09T04:47:57.842Z,102928.88
2024-05-09T04:50:33.186Z,102932.94
2024-05-09T04:53:04.075Z,102931.38
2024-05-09T04:55:30.725Z,102934.72
2024-05-09T04:57:57.304Z,102937.94
2024-05-09T05:00:32.478Z,102933.88
2024-05-09T05:03:06.979Z,102941.91
2024-05-09T05:05:37.563Z,102934.81
2024-05-09T05:08:04.981Z,102936.78
2024-05-09T05:10:36.071Z,102945.69
2024-05-09T05:13:21.228Z,102943.00
2024-05-09T05:15:58.626Z,102935.94
2024-05-09T05:18:27.521Z,102946.41
2024-05-09T05:20:58.318Z,102948.25
2024-05-09T05:23:25.142Z,102944.72
2024-05-09T05:25:53.013Z,102948.47
2024-05-09T05:28:19.992Z,102950.13
2024-05-09T05:30:46.690Z,102950.59
2024-05-09T05:33:14.576Z,102945.63
2024-05-09T05:35:42.011Z,102944.00
2024-05-09T05:38:09.738Z,102944.41
2024-05-09T05:40:38.563Z,102942.69
2024-05-09T05:43:08.366Z,102940.19
2024-05-09T05:45:35.206Z,102945.97
2024-05-09T05:48:06.140Z,102942.16
2024-05-09T05:50:36.525Z,102947.19
2024-05-09T05:53:10.092Z,102946.84
2024-05-09T05:55:41.228Z,102953.28
2024-05-09T05:58:11.553Z,102948.78
2024-05-09T06:00:40.265Z,102945.44
2024-05-09T06:03:09.305Z,102938.66
2024-05-09T06:05:38.636Z,102944.47
2024-05-09T06:08:05.847Z,102942.88
2024-05-09T06:10:38.155Z,102944.00
2024-05-09T06:13:07.444Z,102933.22
2024-05-09T06:15:34.326Z,102932.56
2024-05-09T06:18:01.362Z,102925.81
2024-05-09T06:20:35.467Z,102924.91
2024-05-09T06:23:08.047Z,102931.19
2024-05-09T06:25:36.054Z,102932.38
2024-05-09T06:28:03.099Z,102927.03
2024-05-09T06:30:37.378Z,102930.63
2024-05-09T06:33:08.276Z,102923.56
2024-05-09T06:35:36.360Z,102932.16
2024-05-09T06:38:03.100Z,102930.97
2024-05-09T06:40:37.163Z,102922.97
2024-05-09T06:43:15.054Z,102920.38
2024-05-09T06:45:43.166Z,102924.53
2024-05-09T06:48:10.391Z,102921.50
2024-05-09T06:50:38.852Z,102923.53
2024-05-09T06:53:09.682Z,102928.47
2024-05-09T06:55:37.231Z,102935.97
2024-05-09T06:58:06.031Z,102932.47
2024-05-09T07:00:38.812Z,102925.56
2024-05-09T07:03:09.296Z,102927.16
2024-05-09T07:05:36.498Z,102932.75
2024-05-09T07:08:04.271Z,102929.50
2024-05-09T07:10:35.024Z,102925.53
2024-05-09T07:13:02.616Z,102924.03
2024-05-09T07:15:29.244Z,102926.25
2024-05-09T07:17:56.083Z,102926.84
2024-05-09T07:20:31.830Z,102925.34
2024-05-09T07:23:05.354Z,102931.78
2024-05-09T07:25:32.026Z,102921.91
2024-05-09T07:27:58.596Z,102924.69
2024-05-09T07:30:32.689Z,102923.97
2024-05-09T07:33:01.419Z,102922.44
2024-05-09T07:35:28.668Z,102927.56
2024-05-09T07:37:55.430Z,102919.72
2024-05-09T07:40:31.569Z,102904.72
2024-05-09T07:43:06.847Z,102904.09
2024-05-09T07:52:23.257Z,102904.81
2024-05-09T07:53:38.570Z,102899.06
2024-05-09T07:56:07.357Z,102899.41
2024-05-09T07:58:34.161Z,102901.59
2024-05-09T08:01:02.578Z,102901.34
2024-05-09T08:03:29.379Z,102907.81
2024-05-09T08:05:56.130Z,102910.06
2024-05-09T08:08:23.201Z,102898.28
2024-05-09T08:10:50.817Z,102894.84
2024-05-09T08:13:17.814Z,102898.41
2024-05-09T08:15:44.561Z,102894.19
2024-05-09T08:18:11.471Z,102898.81
2024-05-09T08:20:38.383Z,102890.25
2024-05-09T08:23:05.074Z,102890.72
2024-05-09T08:25:31.641Z,102886.22
2024-05-09T08:27:58.388Z,102896.31
2024-05-09T08:30:32.575Z,102895.91
2024-05-09T08:33:04.276Z,102891.72
2024-05-09T08:35:30.999Z,102890.59
2024-05-09T08:37:57.684Z,102885.81
2024-05-09T08:40:31.046Z,102888.16
2024-05-09T08:43:02.807Z,102881.72
2024-05-09T08:45:30.195Z,102883.41
2024-05-09T08:48:00.165Z,102892.56
2024-05-09T08:50:35.370Z,102892.56
2024-05-09T08:53:05.490Z,102890.56
2024-05-09T08:55:32.276Z,102887.53
2024-05-09T08:58:00.870Z,102886.19
2024-05-09T09:00:35.826Z,102894.84
2024-05-09T09:03:08.320Z,102893.53
2024-05-09T09:05:38.999Z,102889.47
2024-05-09T09:08:08.127Z,102894.63
2024-05-09T09:10:35.749Z,102884.88
2024-05-09T09:13:09.405Z,102895.91
2024-05-09T09:15:47.163Z,102893.88
2024-05-09T09:18:15.889Z,102894.31
2024-05-09T09:20:42.890Z,102893.69
2024-05-09T09:23:09.474Z,102893.53
2024-05-09T09:25:39.751Z,102883.09
2024-05-09T09:28:07.549Z,102875.91
2024-05-09T09:30:37.329Z,102873.69
2024-05-09T09:33:11.886Z,102870.78
2024-05-09T09:35:41.740Z,102870.84
2024-05-09T09:38:10.253Z,102871.84
2024-05-09T09:40:44.793Z,102867.50
2024-05-09T09:43:20.636Z,102867.47
2024-05-09T09:45:52.417Z,102860.81
2024-05-09T09:48:20.268Z,102854.66
2024-05-09T09:50:48.369Z,102851.09
2024-05-09T09:53:16.590Z,102850.44
2024-05-09T09:55:43.339Z,102847.19
2024-05-09T09:58:13.419Z,102848.28
2024-05-09T10:00:41.264Z,102845.13
2024-05-09T10:03:08.144Z,102857.56
2024-05-09T10:05:35.607Z,102846.16
2024-05-09T10:08:07.340Z,102842.84
2024-05-09T10:10:36.543Z,102847.94
2024-05-09T10:13:07.495Z,102838.13
2024-05-09T10:15:48.120Z,102830.84
2024-05-09T10:18:15.263Z,102826.28
2024-05-09T10:20:45.982Z,102820.94
2024-05-09T10:23:36.167Z,102828.47
2024-05-09T10:26:05.102Z,102832.72
2024-05-09T10:28:34.029Z,102827.81
2024-05-09T10:31:11.616Z,102826.91
2024-05-09T10:33:52.698Z,102824.84
2024-05-09T10:36:20.775Z,102828.13
2024-05-09T10:38:49.247Z,102825.66
2024-05-09T10:41:20.118Z,102818.25
2024-05-09T10:43:47.590Z,102819.47
2024-05-09T10:46:14.822Z,102809.03
2024-05-09T10:48:43.340Z,102820.63
2024-05-09T10:51:10.431Z,102805.03
2024-05-09T10:53:42.211Z,102806.56
2024-05-09T10:56:09.276Z,102798.16
2024-05-09T10:58:36.002Z,102796.34
2024-05-09T11:01:06.252Z,102797.25
2024-05-09T11:03:34.202Z,102795.31
2024-05-09T11:06:01.485Z,102786.69
2024-05-09T11:08:28.882Z,102789.13
2024-05-09T11:10:56.283Z,102787.13
2024-05-09T11:13:30.635Z,102787.63
2024-05-09T11:15:57.849Z,102786.78
2024-05-09T11:18:26.767Z,102789.84
2024-05-09T11:20:55.836Z,102785.19
2024-05-09T11:23:24.708Z,102793.09
2024-05-09T11:25:55.820Z,102782.41
2024-05-09T11:28:23.279Z,102768.00
2024-05-09T11:30:52.060Z,102778.59
2024-05-09T11:33:19.425Z,102775.31
2024-05-09T11:35:46.981Z,102770.28
2024-05-09T11:38:13.896Z,102773.22
2024-05-09T11:40:40.823Z,102771.13
2024-05-09T11:43:07.558Z,102763.50
2024-05-09T11:45:34.299Z,102764.00
2024-05-09T11:48:01.307Z,102764.34
2024-05-09T11:50:32.849Z,102760.78
2024-05-09T11:53:02.279Z,102759.63
2024-05-09T11:55:29.078Z,102759.66
2024-05-09T11:57:55.900Z,102759.41
2024-05-09T12:00:32.999Z,102752.31
2024-05-09T12:03:05.200Z,102755.91
2024-05-09T12:05:32.635Z,102744.28
2024-05-09T12:07:59.611Z,102748.13
2024-05-09T12:10:32.451Z,102747.63
2024-05-09T12:13:01.852Z,102745.13
2024-05-09T12:15:28.649Z,102747.06
2024-05-09T12:17:58.184Z,102747.63
2024-05-09T12:20:34.750Z,102740.19
2024-05-09T12:23:04.436Z,102739.34
2024-05-09T12:25:31.070Z,102749.56
2024-05-09T12:27:57.759Z,102743.19
2024-05-09T12:30:33.053Z,102740.97
2024-05-09T12:33:04.781Z,102739.81
2024-05-09T12:35:31.534Z,102737.56
2024-05-09T12:37:58.074Z,102735.41
2024-05-09T12:40:34.188Z,102730.44
2024-05-09T12:43:04.201Z,102727.06
2024-05-09T12:45:30.991Z,102726.72
2024-05-09T12:47:57.744Z,102725.78
2024-05-09T12:50:31.087Z,102722.50
2024-05-09T12:52:59.560Z,102722.28
2024-05-09T12:55:26.943Z,102714.06
2024-05-09T12:57:53.811Z,102716.31
2024-05-09T13:00:27.441Z,102717.41
2024-05-09T13:02:58.268Z,102717.19
2024-05-09T13:05:24.968Z,102718.72
2024-05-09T13:07:51.574Z,102707.19
2024-05-09T13:10:28.656Z,102711.28
2024-05-09T13:12:59.264Z,102706.13
2024-05-09T13:15:25.994Z,102706.84
2024-05-09T13:17:52.724Z,102704.38
2024-05-09T13:20:26.431Z,102701.78
2024-05-09T13:23:01.712Z,102711.16
2024-05-09T13:25:28.364Z,102710.63
2024-05-09T13:27:55.941Z,102700.31
2024-05-09T13:30:29.710Z,102697.69
2024-05-09T13:33:06.352Z,102706.97
2024-05-09T13:35:35.193Z,102707.19
2024-05-09T13:38:02.615Z,102704.81
2024-05-09T13:40:33.801Z,102702.91
2024-05-09T13:43:03.131Z,102703.97
2024-05-09T13:45:29.812Z,102710.06
2024-05-09T13:47:56.821Z,102708.72
2024-05-09T13:50:31.544Z,102702.06
2024-05-09T13:53:02.218Z,102705.06
2024-05-09T13:55:28.680Z,102713.00
2024-05-09T13:57:55.559Z,102701.41
2024-05-09T14:00:37.474Z,102705.25
2024-05-09T14:03:08.840Z,102696.69
2024-05-09T14:05:35.670Z,102699.97
2024-05-09T14:08:02.298Z,102695.47
2024-05-09T14:10:31.388Z,102701.47
2024-05-09T14:12:58.978Z,102694.84
2024-05-09T14:15:25.552Z,102691.56
2024-05-09T14:17:52.190Z,102686.41
2024-05-09T14:20:28.346Z,102686.16
2024-05-09T14:22:58.468Z,102681.44
2024-05-09T14:25:26.465Z,102684.69
2024-05-09T14:27:53.419Z,102686.69
2024-05-09T14:30:29.615Z,102677.06
2024-05-09T14:33:01.292Z,102684.91
2024-05-09T14:35:27.925Z,102675.25
2024-05-09T14:37:54.449Z,102677.19
2024-05-09T14:40:35.338Z,102668.97
2024-05-09T14:43:07.372Z,102671.81
2024-05-09T14:45:34.582Z,102666.88
2024-05-09T14:48:01.569Z,102663.91
2024-05-09T14:50:35.139Z,102664.84
2024-05-09T14:53:05.924Z,102658.88
2024-05-09T14:55:35.279Z,102650.75
2024-05-09T14:58:03.107Z,102643.50
2024-05-09T15:00:35.471Z,102641.59
2024-05-09T15:03:03.439Z,102639.84
2024-05-09T15:05:30.354Z,102637.41
2024-05-09T15:07:57.855Z,102634.94
2024-05-09T15:10:33.622Z,102637.66
2024-05-09T15:13:02.606Z,102633.91
2024-05-09T15:15:29.309Z,102631.72
2024-05-09T15:17:56.059Z,102637.88
2024-05-09T15:20:30.976Z,102633.31
2024-05-09T15:23:02.023Z,102631.81
2024-05-09T15:25:28.787Z,102632.44
2024-05-09T15:27:55.553Z,102614.44
2024-05-09T15:30:30.040Z,102614.94
2024-05-09T15:32:59.200Z,102612.25
2024-05-09T15:35:25.765Z,102622.03
2024-05-09T15:37:52.388Z,102612.47
2024-05-09T15:40:26.636Z,102609.41
2024-05-09T15:43:02.433Z,102612.28
2024-05-09T15:45:29.320Z,102613.44
2024-05-09T15:47:56.806Z,102614.16
2024-05-09T15:50:35.176Z,102612.03
2024-05-09T15:53:06.199Z,102598.19
2024-05-09T15:55:33.510Z,102600.44
2024-05-09T15:58:01.149Z,102594.91
2024-05-09T16:00:36.492Z,102599.47
2024-05-09T16:03:06.905Z,102589.34
2024-05-09T16:05:33.809Z,102591.69
2024-05-09T16:08:00.654Z,102592.88
2024-05-09T16:10:32.437Z,102597.97
2024-05-09T16:13:01.072Z,102592.50
2024-05-09T16:15:27.841Z,102591.94
2024-05-09T16:17:55.283Z,102583.63
2024-05-09T16:20:33.774Z,102583.94
2024-05-09T16:23:05.973Z,102579.03
2024-05-09T16:25:32.498Z,102573.53
2024-05-09T16:27:59.479Z,102587.03
2024-05-09T16:30:32.158Z,102583.72
2024-05-09T16:33:02.527Z,102567.69
2024-05-09T16:35:29.416Z,102572.97
2024-05-09T16:37:55.999Z,102567.72
2024-05-09T16:40:30.229Z,102569.66
2024-05-09T16:43:04.804Z,102564.97
2024-05-09T16:45:31.924Z,102564.41
2024-05-09T16:47:59.641Z,102561.38
2024-05-09T16:50:32.013Z,102562.19
2024-05-09T16:53:00.620Z,102559.03
2024-05-09T16:55:27.366Z,102562.75
2024-05-09T16:57:54.652Z,102561.59
2024-05-09T17:00:34.257Z,102567.31
2024-05-09T17:03:07.180Z,102567.72
2024-05-09T17:05:34.473Z,102570.19
2024-05-09T17:08:01.568Z,102568.59
2024-05-09T17:10:33.644Z,102568.34
2024-05-09T17:13:02.570Z,102566.22
2024-05-09T17:15:29.628Z,102569.50
2024-05-09T17:17:56.438Z,102560.72
2024-05-09T17:20:29.861Z,102569.81
2024-05-09T17:23:02.292Z,102565.38
2024-05-09T17:25:29.157Z,102561.75
2024-05-09T17:27:56.045Z,102561.84
2024-05-09T17:30:29.120Z,102561.63
2024-05-09T17:33:02.312Z,102557.44
2024-05-09T17:35:29.105Z,102562.78
2024-05-09T17:37:56.527Z,102564.91
2024-05-09T17:40:30.974Z,102559.34
2024-05-09T17:43:01.601Z,102563.13
2024-05-09T17:45:28.336Z,102558.34
2024-05-09T17:47:55.192Z,102554.47
2024-05-09T17:50:27.931Z,102544.66
2024-05-09T17:53:01.024Z,102548.94
2024-05-09T17:55:27.885Z,102547.81
2024-05-09T17:57:54.568Z,102555.59
2024-05-09T18:00:29.481Z,102556.97
2024-05-09T18:03:04.475Z,102560.34
2024-05-09T18:05:31.569Z,102560.41
2024-05-09T18:07:58.469Z,102558.25
2024-05-09T18:10:32.812Z,102553.31
2024-05-09T18:13:03.645Z,102557.25
2024-05-09T18:15:30.223Z,102555.59
2024-05-09T18:17:56.947Z,102563.75
2024-05-09T18:20:32.444Z,102561.19
2024-05-09T18:23:07.109Z,102561.84
2024-05-09T18:25:33.731Z,102557.47
2024-05-09T18:28:02.293Z,102553.03
2024-05-09T18:30:34.447Z,102559.53
2024-05-09T18:33:03.114Z,102554.53
2024-05-09T18:35:29.803Z,102558.38
2024-05-09T18:37:56.467Z,102550.66
2024-05-09T18:40:31.297Z,102553.88
2024-05-09T18:43:01.989Z,102551.16
2024-05-09T18:45:29.031Z,102552.22
2024-05-09T18:47:55.922Z,102555.44
2024-05-09T18:50:31.858Z,102557.84
2024-05-09T18:53:03.434Z,102553.69
2024-05-09T18:55:29.955Z,102560.16
2024-05-09T18:57:56.889Z,102572.94
2024-05-09T19:00:33.008Z,102575.34
2024-05-09T19:03:05.451Z,102567.63
2024-05-09T19:05:33.218Z,102560.25
2024-05-09T19:08:00.244Z,102551.41
2024-05-09T19:10:33.685Z,102556.56
2024-05-09T19:13:04.389Z,102567.41
2024-05-09T19:15:34.596Z,102568.44
2024-05-09T19:18:01.381Z,102565.56
2024-05-09T19:20:33.420Z,102569.91
2024-05-09T19:23:01.578Z,102568.72
2024-05-09T19:25:28.085Z,102575.63
2024-05-09T19:27:54.713Z,102569.00
2024-05-09T19:30:29.903Z,102569.16
2024-05-09T19:33:04.671Z,102574.78
2024-05-09T19:35:31.458Z,102573.84
2024-05-09T19:37:58.538Z,102576.22
2024-05-09T19:40:31.251Z,102579.44
2024-05-09T19:43:00.127Z,102576.00
2024-05-09T19:45:26.743Z,102571.53
2024-05-09T19:47:53.651Z,102568.78
2024-05-09T19:50:27.038Z,102570.56
2024-05-09T19:53:02.632Z,102571.03
2024-05-09T19:55:29.231Z,102579.63
2024-05-09T19:57:55.844Z,102583.19
2024-05-09T20:00:29.208Z,102583.31
2024-05-09T20:03:01.866Z,102575.84
2024-05-09T20:05:30.756Z,102568.34
2024-05-09T20:07:57.656Z,102578.91
2024-05-09T20:10:29.789Z,102583.06
2024-05-09T20:12:59.337Z,102581.16
2024-05-09T20:15:25.979Z,102581.97
2024-05-09T20:17:52.614Z,102576.25
2024-05-09T20:20:28.380Z,102583.25
2024-05-09T20:23:02.902Z,102582.63
2024-05-09T20:25:29.544Z,102581.84
2024-05-09T20:27:56.128Z,102587.34
2024-05-09T20:30:29.003Z,102580.94
2024-05-09T20:32:59.838Z,102587.56
2024-05-09T20:35:26.762Z,102583.38
2024-05-09T20:37:53.398Z,102589.53
2024-05-09T20:40:28.273Z,102593.19
2024-05-09T20:42:59.203Z,102596.38
2024-05-09T20:45:25.813Z,102592.94
2024-05-09T20:47:52.702Z,102597.63
2024-05-09T20:50:28.167Z,102599.47
2024-05-09T20:53:02.776Z,102600.59
2024-05-09T20:55:30.024Z,102598.56
2024-05-09T20:57:57.460Z,102606.38
2024-05-09T21:00:33.719Z,102603.97
2024-05-09T21:03:06.493Z,102595.41
2024-05-09T21:05:34.113Z,102597.38
2024-05-09T21:08:01.304Z,102599.97
2024-05-09T21:10:32.278Z,102596.00
2024-05-09T21:13:00.346Z,102595.88
2024-05-09T21:15:26.916Z,102598.44
2024-05-09T21:17:53.520Z,102597.19
2024-05-09T21:20:24.401Z,102594.06
2024-05-09T21:22:57.724Z,102595.78
2024-05-09T21:25:24.367Z,102591.72
2024-05-09T21:27:51.264Z,102598.41
2024-05-09T21:30:26.812Z,102596.19
2024-05-09T21:32:58.752Z,102593.25
2024-05-09T21:35:25.338Z,102589.09
2024-05-09T21:37:51.903Z,102592.13
2024-05-09T21:40:27.021Z,102591.50
2024-05-09T21:43:00.238Z,102593.78
2024-05-09T21:45:27.169Z,102595.53
2024-05-09T21:47:53.806Z,102593.00
2024-05-09T21:50:27.564Z,102587.56
2024-05-09T21:52:58.819Z,102590.13
2024-05-09T21:55:25.456Z,102593.97
2024-05-09T21:57:52.124Z,102598.00
2024-05-09T22:00:28.632Z,102585.66
2024-05-09T22:03:02.134Z,102585.88
2024-05-09T22:05:29.057Z,102585.28
2024-05-09T22:07:55.772Z,102587.34
2024-05-09T22:10:26.554Z,102594.25
2024-05-09T22:12:59.122Z,102589.59
2024-05-09T22:15:25.850Z,102596.13
2024-05-09T22:17:52.587Z,102586.28
2024-05-09T22:20:26.018Z,102594.88
2024-05-09T22:23:00.605Z,102584.22
2024-05-09T22:25:29.694Z,102581.50
2024-05-09T22:27:57.043Z,102588.66
2024-05-09T22:30:31.184Z,102586.22
2024-05-09T22:33:01.947Z,102588.31
2024-05-09T22:35:28.516Z,102588.53
2024-05-09T22:37:55.356Z,102594.19
2024-05-09T22:40:29.527Z,102592.16
2024-05-09T22:43:06.011Z,102590.34
2024-05-09T22:45:32.805Z,102594.53
2024-05-09T22:47:59.781Z,102595.41
2024-05-09T22:50:30.546Z,102598.13
2024-05-09T22:52:59.125Z,102587.28
2024-05-09T22:55:25.642Z,102589.84
2024-05-09T22:57:52.259Z,102593.59
2024-05-09T23:00:21.834Z,102601.34
2024-05-09T23:02:52.862Z,102598.22
2024-05-09T23:05:19.632Z,102598.22
2024-05-09T23:07:46.270Z,102596.97
2024-05-09T23:10:17.381Z,102596.75
2024-05-09T23:12:51.519Z,102599.91
2024-05-09T23:15:18.141Z,102602.84
2024-05-09T23:17:45.037Z,102589.44
2024-05-09T23:20:14.503Z,102598.91
2024-05-09T23:22:41.210Z,102593.31
2024-05-09T23:25:07.805Z,102593.81
2024-05-09T23:27:34.608Z,102600.50
2024-05-09T23:30:01.224Z,102593.41
2024-05-09T23:32:27.859Z,102596.97
2024-05-09T23:34:54.492Z,102596.34
2024-05-09T23:37:21.164Z,102583.78
2024-05-09T23:39:47.781Z,102589.22
2024-05-09T23:42:14.454Z,102588.00
2024-05-09T23:44:41.033Z,102580.88
2024-05-09T23:47:10.659Z,102584.66
2024-05-09T23:49:37.518Z,102584.66
2024-05-09T23:52:05.144Z,102583.63
2024-05-09T23:54:31.622Z,102584.88
2024-05-09T23:56:58.141Z,102583.03
2024-05-09T23:59:24.673Z,102578.81
